Terminal Aerodrome Forecast
Issued by NWS

Home | Current Version | Previous Version | Text Only | Print | Product List | Glossary On
Versions: 1 2 3 4 5 6 7 8 9 10 11 12
000
FTUS45 KABQ 281127
TAFTCC
TAF
KTCC 281127Z 2812/2912 10008KT P6SM VCSH BKN090
     FM281700 07010KT P6SM VCSH OVC025
     FM290000 08016G24KT P6SM -RA OVC015
     FM290700 03009KT 4SM -RA OVC010=

USA.gov is the U.S. government's official web portal to all federal, state and local government web resources and services.